Time;durP1;ratioP1;P1;durP2;ratioP2;P2;SDS_P1;SDS_P2;PMS_P1;PMS_P2;Temp;Humidity;BMP_temperature;BMP_pressure;BME280_temperature;BME280_humidity;BME280_pressure;Samples;Min_cycle;Max_cycle;Signal;HPM_P1;HPM_P2
2022/10/03 00:00:11;;;;;;;12.82;7.78;;;;;;;16.27;82.72;100873.69;4991143;28;20081;-81
2022/10/03 00:03:28;;;;;;;22.67;7.63;;;;;;;16.22;83.42;100888.47;5009880;28;20076;-81
2022/10/03 00:06:39;;;;;;;16.77;8.02;;;;;;;16.24;83.37;100888.94;5006175;28;20038;-80
2022/10/03 00:09:46;;;;;;;14.68;7.68;;;;;;;16.19;83.55;100883.69;4994458;28;20050;-81
2022/10/03 00:12:46;;;;;;;21.27;6.88;;;;;;;16.20;83.70;100884.50;4994925;28;20050;-81
2022/10/03 00:15:44;;;;;;;13.30;6.72;;;;;;;16.17;83.71;100890.66;4996949;28;20041;-79
2022/10/03 00:18:48;;;;;;;10.52;6.75;;;;;;;16.13;83.97;100901.53;4997630;28;20434;-82
2022/10/03 00:21:36;;;;;;;17.40;6.78;;;;;;;16.03;84.09;100906.72;4997741;28;20038;-82
2022/10/03 00:24:52;;;;;;;9.88;6.15;;;;;;;15.96;84.86;100901.81;4996138;28;20053;-82
2022/10/03 00:27:51;;;;;;;13.55;6.63;;;;;;;16.08;84.00;100901.78;5000913;28;20057;-80
2022/10/03 00:30:51;;;;;;;19.38;8.07;;;;;;;16.01;84.80;100898.81;4993839;28;20050;-81
2022/10/03 00:33:56;;;;;;;16.27;6.07;;;;;;;16.07;83.85;100897.44;4994570;28;20057;-82
2022/10/03 00:36:49;;;;;;;12.70;6.38;;;;;;;15.98;84.11;100891.28;5000441;28;20540;-81
2022/10/03 00:39:42;;;;;;;9.70;5.80;;;;;;;16.15;83.32;100899.22;4995194;28;20417;-82
2022/10/03 00:43:05;;;;;;;8.45;5.70;;;;;;;16.12;83.06;100899.94;4976568;28;20050;-79
2022/10/03 00:46:08;;;;;;;16.75;6.40;;;;;;;15.90;84.02;100899.66;5002858;28;20517;-80
2022/10/03 00:49:28;;;;;;;15.57;7.05;;;;;;;15.82;84.65;100902.19;4997934;28;20068;-80
2022/10/03 00:52:24;;;;;;;11.88;6.82;;;;;;;15.77;84.40;100904.38;4996640;28;20067;-81
2022/10/03 00:55:34;;;;;;;10.90;5.65;;;;;;;15.73;84.82;100906.19;4996901;28;20030;-80
2022/10/03 00:58:19;;;;;;;10.80;5.65;;;;;;;15.77;84.54;100916.13;5019134;28;20069;-79
2022/10/03 01:01:23;;;;;;;;;;;;;;;15.58;85.18;100912.38;4988395;28;20038;-80
2022/10/03 01:04:26;;;;;;;14.48;7.32;;;;;;;15.75;84.65;100925.84;4992394;28;19914;-81
2022/10/03 01:07:42;;;;;;;9.75;5.57;;;;;;;15.58;84.65;100924.16;4998016;28;20053;-82
2022/10/03 01:10:39;;;;;;;10.70;7.43;;;;;;;15.69;84.23;100924.50;4982922;28;20054;-80
2022/10/03 01:13:31;;;;;;;12.38;6.40;;;;;;;15.73;83.98;100926.19;4995196;28;20038;-82
2022/10/03 01:16:22;;;;;;;11.63;7.00;;;;;;;15.88;83.22;100930.19;4992892;28;20486;-80
2022/10/03 01:19:25;;;;;;;20.85;6.70;;;;;;;15.98;82.83;100937.94;4994963;28;20046;-82
2022/10/03 01:22:13;;;;;;;17.00;6.80;;;;;;;15.70;83.88;100934.28;5003484;28;20057;-78
2022/10/03 01:25:22;;;;;;;14.57;6.00;;;;;;;16.02;82.85;100941.56;4993825;28;20441;-78
2022/10/03 01:31:13;;;;;;;16.95;6.40;;;;;;;15.99;83.10;100935.97;4992224;28;20049;-79
2022/10/03 01:34:19;;;;;;;12.20;6.18;;;;;;;16.02;82.55;100930.59;4997681;28;20054;-79
2022/10/03 01:37:15;;;;;;;12.25;6.50;;;;;;;15.79;83.74;100932.25;4992262;28;20401;-80
2022/10/03 01:40:19;;;;;;;23.40;8.15;;;;;;;15.77;84.43;100946.28;4992664;28;20122;-81
2022/10/03 01:43:10;;;;;;;9.65;4.82;;;;;;;15.76;84.29;100952.91;4995658;28;20079;-79
2022/10/03 01:46:11;;;;;;;10.43;6.45;;;;;;;15.98;83.85;100948.91;4993786;28;20053;-78
2022/10/03 01:49:21;;;;;;;11.27;5.60;;;;;;;16.17;82.50;100954.56;4991823;28;20034;-79
2022/10/03 01:52:29;;;;;;;12.98;6.15;;;;;;;16.24;82.21;100948.50;4991834;28;20050;-78
2022/10/03 01:55:36;;;;;;;9.70;6.03;;;;;;;16.33;81.38;100962.88;4996473;28;20053;-79
2022/10/03 01:58:55;;;;;;;11.00;5.78;;;;;;;16.14;82.38;100960.75;4992494;28;20505;-79
2022/10/03 02:01:57;;;;;;;19.00;7.10;;;;;;;15.78;83.65;100955.31;4999540;28;20042;-79
2022/10/03 02:04:51;;;;;;;13.63;5.45;;;;;;;15.98;83.07;100951.66;4993612;28;20046;-79
2022/10/03 02:07:50;;;;;;;10.73;5.18;;;;;;;15.88;83.17;100954.06;4991241;28;20042;-80
2022/10/03 02:10:59;;;;;;;9.63;4.63;;;;;;;15.78;84.62;100969.84;4992131;28;20065;-79
2022/10/03 02:14:14;;;;;;;12.63;5.60;;;;;;;15.93;83.46;100962.84;4978453;28;20049;-79
2022/10/03 02:17:44;;;;;;;9.50;5.38;;;;;;;16.05;82.91;100976.53;4992321;28;20065;-79
2022/10/03 02:20:50;;;;;;;9.75;5.40;;;;;;;15.93;83.98;100968.34;4995352;28;20053;-79
2022/10/03 02:23:35;;;;;;;17.65;4.85;;;;;;;16.03;83.71;100972.53;4997347;28;20049;-79
2022/10/03 02:26:45;;;;;;;;;;;;;;;16.04;83.69;100977.69;4997135;28;20050;-79
2022/10/03 02:29:54;;;;;;;8.45;6.00;;;;;;;16.11;83.65;100972.41;4992891;28;19917;-81
2022/10/03 02:33:24;;;;;;;11.55;5.57;;;;;;;16.19;83.30;100968.75;4993793;28;20049;-81
2022/10/03 02:36:29;;;;;;;10.75;5.35;;;;;;;16.16;83.63;100969.44;4995950;28;20035;-81
2022/10/03 02:39:20;;;;;;;7.97;5.15;;;;;;;16.12;84.34;100968.53;4997148;28;20053;-81
2022/10/03 02:42:58;;;;;;;16.73;5.43;;;;;;;16.11;84.14;100961.44;4997611;28;20053;-81
2022/10/03 02:46:02;;;;;;;10.70;5.15;;;;;;;16.27;83.54;100970.53;5002517;28;20042;-81
2022/10/03 02:49:09;;;;;;;7.70;4.78;;;;;;;16.30;83.21;100973.75;4996566;28;20050;-82
2022/10/03 02:51:53;;;;;;;11.18;5.22;;;;;;;16.14;83.90;100976.41;4993866;28;20528;-81
2022/10/03 02:55:13;;;;;;;13.80;4.57;;;;;;;16.18;84.05;100980.88;4997883;28;20041;-81
2022/10/03 02:58:19;;;;;;;9.52;5.68;;;;;;;16.17;84.21;100981.19;5000352;28;20497;-80
2022/10/03 03:01:18;;;;;;;11.13;5.57;;;;;;;16.22;83.69;100978.22;4995879;28;20054;-79
2022/10/03 03:04:06;;;;;;;11.32;5.68;;;;;;;16.26;83.71;100979.91;5001458;28;20046;-80
2022/10/03 03:07:09;;;;;;;8.38;6.05;;;;;;;16.27;83.35;100978.78;4998168;28;20046;-81
2022/10/03 03:10:21;;;;;;;10.30;5.25;;;;;;;16.44;83.11;100983.19;4995188;28;20046;-80
2022/10/03 03:13:39;;;;;;;9.55;6.05;;;;;;;16.41;82.55;100980.34;4994663;28;20053;-81
2022/10/03 03:16:33;;;;;;;10.93;6.13;;;;;;;16.33;83.18;100990.31;5007467;28;20073;-80
2022/10/03 03:19:30;;;;;;;9.73;6.57;;;;;;;16.12;84.22;100992.41;4995189;28;20046;-81
2022/10/03 03:22:38;;;;;;;11.18;5.40;;;;;;;16.08;84.78;100983.28;4994366;28;20122;-79
2022/10/03 03:25:54;;;;;;;9.63;6.10;;;;;;;15.92;85.69;100985.94;4998119;28;20042;-80
2022/10/03 03:28:45;;;;;;;8.13;5.18;;;;;;;16.26;83.97;100987.34;4994127;28;20041;-80
2022/10/03 03:32:00;;;;;;;10.20;5.43;;;;;;;16.18;83.93;100999.28;4996858;28;20045;-80
2022/10/03 03:35:13;;;;;;;10.57;5.72;;;;;;;16.12;84.35;100989.66;5000387;28;20049;-80
2022/10/03 03:38:40;;;;;;;10.07;5.70;;;;;;;16.04;84.20;100985.94;4997183;28;20049;-79
2022/10/03 03:41:44;;;;;;;17.10;6.47;;;;;;;15.92;84.93;100985.94;4989474;28;20490;-80
2022/10/03 03:45:24;;;;;;;9.98;5.18;;;;;;;15.68;85.90;100994.16;4996288;28;20049;-80
2022/10/03 03:48:17;;;;;;;16.08;5.75;;;;;;;15.54;86.72;100991.78;4992265;28;20053;-79
2022/10/03 03:51:20;;;;;;;10.48;5.90;;;;;;;15.41;87.84;100999.16;4994677;28;20050;-80
2022/10/03 03:54:18;;;;;;;8.90;6.03;;;;;;;15.33;87.69;101007.47;4987978;28;20042;-79
2022/10/03 03:57:33;;;;;;;9.98;6.10;;;;;;;15.39;86.71;101006.88;4993149;28;20049;-79
2022/10/03 04:00:28;;;;;;;11.00;6.87;;;;;;;15.37;86.97;101022.91;5004453;28;20085;-78
2022/10/03 04:03:34;;;;;;;8.50;6.53;;;;;;;15.25;87.84;101020.13;4987932;28;20417;-79
2022/10/03 04:06:41;;;;;;;11.40;6.85;;;;;;;15.23;87.50;101024.34;4993003;28;20520;-79
2022/10/03 04:09:56;;;;;;;13.70;7.75;;;;;;;15.04;88.16;101033.06;4993602;28;20037;-81
2022/10/03 04:12:44;;;;;;;16.75;9.95;;;;;;;15.11;87.63;101036.06;4999318;28;20038;-79
2022/10/03 04:15:29;;;;;;;21.60;11.27;;;;;;;15.17;87.73;101029.25;4981046;28;20501;-81
2022/10/03 04:21:42;;;;;;;16.58;9.60;;;;;;;14.81;88.13;101032.66;4993024;28;20042;-80
2022/10/03 04:24:45;;;;;;;17.00;9.77;;;;;;;14.90;88.65;101036.09;4987869;28;20042;-80
2022/10/03 04:27:58;;;;;;;18.02;9.75;;;;;;;14.68;89.03;101030.19;4993252;28;20050;-78
2022/10/03 04:30:50;;;;;;;18.50;10.40;;;;;;;14.55;89.99;101026.56;5007540;28;20038;-79
2022/10/03 04:33:44;;;;;;;20.67;9.70;;;;;;;14.56;89.52;101022.72;4998692;28;20429;-78
2022/10/03 04:36:48;;;;;;;13.45;9.40;;;;;;;14.55;89.74;101012.91;4998403;28;20038;-79
2022/10/03 04:40:19;;;;;;;16.95;10.00;;;;;;;14.62;89.45;101015.09;4989421;28;20046;-79
2022/10/03 04:43:23;;;;;;;18.13;10.15;;;;;;;14.66;89.63;101010.56;5024221;28;20047;-78
2022/10/03 04:46:32;;;;;;;18.88;10.07;;;;;;;14.67;89.07;101012.16;4987607;28;20046;-80
2022/10/03 04:49:42;;;;;;;19.25;11.13;;;;;;;14.66;89.61;101010.56;4995775;28;20038;-82
2022/10/03 04:52:38;;;;;;;16.60;10.02;;;;;;;14.60;89.82;101007.22;4990911;28;20437;-81
2022/10/03 04:55:44;;;;;;;18.05;10.23;;;;;;;14.35;90.82;101008.19;4998971;28;20046;-81
2022/10/03 04:58:38;;;;;;;17.02;9.40;;;;;;;14.40;90.25;100997.06;4997880;28;20046;-82
2022/10/03 05:01:32;;;;;;;20.48;9.98;;;;;;;14.55;89.80;101007.41;4987825;28;20077;-81
2022/10/03 05:04:43;;;;;;;12.90;9.52;;;;;;;14.29;89.37;101001.31;4991422;28;20510;-79
2022/10/03 05:07:46;;;;;;;14.02;10.05;;;;;;;14.12;90.59;101003.03;4989725;28;20049;-79
2022/10/03 05:11:07;;;;;;;17.40;9.98;;;;;;;14.43;90.16;101010.88;4986707;28;20072;-82
2022/10/03 05:14:04;;;;;;;15.95;10.48;;;;;;;14.38;90.83;101005.63;5043523;22;20061;-84
2022/10/03 05:17:02;;;;;;;14.43;9.18;;;;;;;14.42;89.94;101006.56;4998989;28;20039;-82
2022/10/03 05:20:02;;;;;;;14.10;9.68;;;;;;;14.33;90.07;101007.72;5002528;28;20039;-82
2022/10/03 05:22:59;;;;;;;17.02;9.27;;;;;;;14.39;88.55;101011.88;4996971;28;20053;-82
2022/10/03 05:25:43;;;;;;;15.85;9.35;;;;;;;14.42;88.61;101014.78;4998729;28;20062;-81
2022/10/03 05:28:35;;;;;;;17.65;9.45;;;;;;;14.45;88.58;101027.78;4994214;28;20049;-81
2022/10/03 05:31:43;;;;;;;16.40;10.27;;;;;;;14.50;88.57;101027.59;4998071;28;20042;-82
2022/10/03 05:35:15;;;;;;;17.23;9.02;;;;;;;14.68;87.75;101032.94;5002792;28;20038;-83
2022/10/03 05:38:06;;;;;;;17.60;9.13;;;;;;;14.74;87.28;101037.03;5024509;28;20041;-82
2022/10/03 05:41:16;;;;;;;20.58;8.90;;;;;;;14.84;86.86;101044.84;4996154;28;20417;-82
2022/10/03 05:44:16;;;;;;;27.50;9.45;;;;;;;14.93;86.56;101043.63;5008834;28;20046;-81
2022/10/03 05:47:43;;;;;;;16.30;8.18;;;;;;;15.44;84.41;101046.97;4997640;28;20046;-80
2022/10/03 05:50:41;;;;;;;14.93;7.90;;;;;;;16.97;76.13;101041.59;4996876;28;20555;-80
2022/10/03 05:53:31;;;;;;;24.63;8.07;;;;;;;17.88;70.86;101046.00;4996028;28;20043;-81
2022/10/03 05:56:47;;;;;;;17.83;7.65;;;;;;;18.67;67.34;101041.13;5000987;28;20038;-83
2022/10/03 05:59:52;;;;;;;16.67;8.38;;;;;;;19.17;64.61;101047.63;4998476;28;20039;-82
2022/10/03 06:02:43;;;;;;;14.20;7.47;;;;;;;19.94;62.25;101055.72;4998436;28;20502;-82
2022/10/03 06:06:02;;;;;;;19.58;8.10;;;;;;;20.19;60.76;101059.66;4999572;28;20445;-82
2022/10/03 06:08:51;;;;;;;17.75;7.18;;;;;;;19.41;62.88;101068.56;4998492;28;20050;-82
2022/10/03 06:12:02;;;;;;;13.95;7.38;;;;;;;18.61;65.89;101070.13;5000989;28;20053;-82
2022/10/03 06:14:56;;;;;;;37.25;6.20;;;;;;;18.79;65.28;101070.53;5002554;28;20035;-82
2022/10/03 06:17:54;;;;;;;11.55;5.25;;;;;;;19.56;63.53;101074.00;4989883;28;20038;-83
2022/10/03 06:20:45;;;;;;;13.18;5.38;;;;;;;19.77;62.38;101070.81;4996990;28;20041;-83
2022/10/03 06:23:48;;;;;;;8.48;4.90;;;;;;;20.28;60.65;101073.19;4993316;28;20069;-81
2022/10/03 06:27:10;;;;;;;8.07;4.65;;;;;;;21.08;57.67;101074.72;5000960;28;20045;-82
2022/10/03 06:30:18;;;;;;;7.20;4.53;;;;;;;21.74;55.90;101077.38;4999763;28;20065;-81
2022/10/03 06:33:33;;;;;;;13.60;5.22;;;;;;;21.48;55.89;101083.06;4995505;28;20053;-80
2022/10/03 06:36:35;;;;;;;7.18;4.20;;;;;;;21.57;55.87;101083.56;4999978;28;20045;-81
2022/10/03 06:39:44;;;;;;;11.18;5.05;;;;;;;19.16;63.42;101073.59;4997668;28;20037;-80
2022/10/03 06:42:51;;;;;;;8.43;5.40;;;;;;;17.82;71.39;101079.66;4993329;28;20045;-80
2022/10/03 06:45:57;;;;;;;8.00;5.28;;;;;;;17.30;74.23;101088.06;4999882;28;20053;-80
2022/10/03 06:49:11;;;;;;;16.80;5.95;;;;;;;17.50;73.81;101087.03;4993794;28;20053;-80
2022/10/03 06:51:59;;;;;;;9.95;5.85;;;;;;;17.28;74.87;101079.38;5001557;28;20049;-81
2022/10/03 06:54:55;;;;;;;12.45;5.90;;;;;;;17.12;76.72;101086.78;5002095;28;20406;-80
2022/10/03 06:58:01;;;;;;;9.15;6.45;;;;;;;17.06;77.03;101089.00;5003116;28;20042;-80
2022/10/03 07:00:56;;;;;;;12.80;5.88;;;;;;;17.03;77.78;101095.16;5001667;28;20057;-80
2022/10/03 07:03:41;;;;;;;;;;;;;;;17.14;77.56;101096.28;5003075;28;20078;-80
2022/10/03 07:06:38;;;;;;;10.93;6.15;;;;;;;17.21;77.72;101104.72;4999334;28;19925;-80
2022/10/03 07:10:00;;;;;;;10.23;6.20;;;;;;;17.29;77.30;101105.72;4993447;28;20045;-80
2022/10/03 07:13:23;;;;;;;10.95;5.80;;;;;;;17.41;76.99;101100.97;4996783;28;20053;-80
2022/10/03 07:16:40;;;;;;;11.95;7.10;;;;;;;17.36;76.46;101095.72;4997236;28;20402;-80
2022/10/03 07:19:46;;;;;;;10.43;6.32;;;;;;;17.43;77.10;101112.38;5001293;28;20038;-80
2022/10/03 07:22:58;;;;;;;8.00;5.97;;;;;;;17.54;76.40;101118.19;4994375;28;20045;-80
2022/10/03 07:26:10;;;;;;;11.15;6.80;;;;;;;17.63;76.82;101118.84;5005466;28;20114;-79
2022/10/03 07:29:13;;;;;;;15.82;6.90;;;;;;;17.76;76.49;101127.84;4994235;28;20045;-80
2022/10/03 07:32:36;;;;;;;7.75;6.50;;;;;;;17.85;76.23;101121.00;5000125;28;20042;-80
2022/10/03 07:39:26;;;;;;;13.07;5.60;;;;;;;18.23;73.77;101130.59;5000074;28;20041;-80
2022/10/03 07:42:47;;;;;;;11.13;5.45;;;;;;;18.49;72.73;101130.81;5005494;28;20484;-79
2022/10/03 07:45:36;;;;;;;17.75;6.13;;;;;;;18.43;72.94;101132.25;5008953;28;20494;-80
2022/10/03 07:48:40;;;;;;;12.05;6.30;;;;;;;18.46;72.96;101133.47;5006706;28;20053;-80
2022/10/03 07:51:43;;;;;;;15.05;5.75;;;;;;;18.61;71.37;101136.25;5000693;28;20042;-80
2022/10/03 07:54:42;;;;;;;11.32;4.90;;;;;;;18.78;71.66;101135.84;5000866;28;20041;-80
2022/10/03 07:57:38;;;;;;;13.68;5.57;;;;;;;19.05;71.00;101138.75;4997168;28;20046;-81
2022/10/03 08:00:36;;;;;;;7.25;5.13;;;;;;;19.21;69.10;101145.81;5003377;28;20045;-80
2022/10/03 08:04:02;;;;;;;10.55;4.95;;;;;;;19.29;69.37;101132.97;5004787;28;20049;-79
2022/10/03 08:07:21;;;;;;;8.48;5.30;;;;;;;19.33;69.67;101128.31;5000983;28;20046;-79
2022/10/03 08:10:56;;;;;;;10.60;4.60;;;;;;;19.47;69.46;101131.38;5001228;28;20508;-79
2022/10/03 08:14:15;;;;;;;6.68;5.38;;;;;;;19.75;67.19;101122.03;5000133;28;20049;-80
2022/10/03 08:17:17;;;;;;;6.35;4.38;;;;;;;19.60;68.18;101127.31;4988727;28;20533;-80
2022/10/03 08:20:50;;;;;;;11.15;5.53;;;;;;;19.68;68.53;101127.41;5004276;28;20529;-79
2022/10/03 08:24:17;;;;;;;6.65;5.20;;;;;;;19.96;66.47;101133.47;5000870;28;20045;-79
2022/10/03 08:27:25;;;;;;;11.60;5.40;;;;;;;19.98;66.56;101131.09;4998649;28;20054;-79
2022/10/03 08:30:19;;;;;;;13.50;6.38;;;;;;;20.04;65.88;101133.19;5000313;28;20047;-80
2022/10/03 08:33:22;;;;;;;15.80;6.37;;;;;;;20.17;65.50;101136.56;5002877;28;20049;-80
2022/10/03 08:36:30;;;;;;;12.48;6.05;;;;;;;20.04;65.84;101146.22;4999176;28;20049;-80
2022/10/03 08:40:01;;;;;;;8.07;5.95;;;;;;;20.29;64.97;101152.94;5000025;28;20122;-80
2022/10/03 08:43:22;;;;;;;13.02;6.47;;;;;;;20.20;65.09;101146.88;4996898;28;20062;-79
2022/10/03 08:46:35;;;;;;;10.15;6.47;;;;;;;20.39;65.21;101155.09;5011186;28;20533;-79
2022/10/03 08:49:35;;;;;;;13.68;6.80;;;;;;;20.35;65.33;101147.94;5004297;28;20039;-79
2022/10/03 08:52:38;;;;;;;14.38;6.78;;;;;;;20.35;65.12;101139.63;4994069;28;20039;-80
2022/10/03 08:55:44;;;;;;;16.48;7.47;;;;;;;20.58;63.85;101148.66;5012694;28;20551;-79
2022/10/03 08:58:50;;;;;;;18.40;6.30;;;;;;;20.93;62.35;101140.06;4991977;28;20050;-80
2022/10/03 09:02:03;;;;;;;12.75;5.78;;;;;;;21.22;60.80;101147.63;4991870;28;20049;-79
2022/10/03 09:05:22;;;;;;;16.38;6.05;;;;;;;21.16;60.18;101140.00;4978110;28;20058;-79
2022/10/03 09:08:26;;;;;;;9.20;5.85;;;;;;;21.40;59.02;101139.50;4995866;28;20057;-81
2022/10/03 09:11:10;;;;;;;17.30;6.25;;;;;;;21.62;58.55;101129.47;4998058;28;20045;-80
2022/10/03 09:14:20;;;;;;;21.77;6.30;;;;;;;21.69;57.94;101146.94;4997878;28;20057;-79
2022/10/03 09:17:23;;;;;;;9.55;6.15;;;;;;;21.07;60.17;101148.56;4999165;28;20038;-80
2022/10/03 09:20:30;;;;;;;9.10;6.10;;;;;;;21.34;60.17;101141.81;5002201;28;20069;-81
2022/10/03 09:23:39;;;;;;;11.13;6.93;;;;;;;20.84;60.33;101145.09;4983349;28;20065;-80
2022/10/03 09:26:36;;;;;;;14.63;5.45;;;;;;;21.17;60.19;101147.94;4997676;28;20053;-80
2022/10/03 09:29:53;;;;;;;9.93;6.10;;;;;;;21.12;60.25;101142.72;4999179;28;20042;-80
2022/10/03 09:33:16;;;;;;;19.52;6.63;;;;;;;21.63;58.58;101142.13;4992644;28;20409;-81
2022/10/03 09:36:21;;;;;;;18.77;4.93;;;;;;;22.07;57.25;101148.53;4999956;28;20516;-79
2022/10/03 09:39:17;;;;;;;9.35;6.22;;;;;;;21.57;58.56;101136.16;4999827;28;20053;-82
2022/10/03 09:42:08;;;;;;;;;;;;;;;21.89;57.69;101147.50;5000862;28;20525;-84
2022/10/03 09:45:07;;;;;;;;;;;;;;;22.02;57.24;101148.88;5000713;28;19914;-83
2022/10/03 09:48:01;;;;;;;;;;;;;;;21.57;58.45;101140.88;5004455;28;20309;-85
2022/10/03 09:50:54;;;;;;;;;;;;;;;21.83;57.95;101140.75;5008020;28;20380;-86
2022/10/03 09:54:08;;;;;;;;;;;;;;;21.76;57.65;101138.72;5006663;28;20377;-81
2022/10/03 09:57:01;;;;;;;;;;;;;;;22.01;56.84;101141.72;5006738;28;19913;-81
2022/10/03 10:00:04;;;;;;;;;;;;;;;22.16;56.68;101134.34;5006695;28;19914;-83
2022/10/03 10:03:02;;;;;;;;;;;;;;;21.95;57.23;101140.50;5006450;28;19914;-84
2022/10/03 10:06:05;;;;;;;18.13;6.53;;;;;;;22.09;56.87;101132.31;4996197;28;20924;-79
2022/10/03 10:09:23;;;;;;;12.93;4.95;;;;;;;22.26;57.01;101124.50;4983508;28;20800;-78
2022/10/03 10:12:12;;;;;;;15.95;6.32;;;;;;;22.08;55.81;101122.41;4993186;28;20058;-81
2022/10/03 10:15:20;;;;;;;10.95;5.10;;;;;;;22.58;55.65;101125.53;5005534;28;20065;-81
2022/10/03 10:18:23;;;;;;;12.25;4.47;;;;;;;22.20;56.27;101115.75;4984578;28;20034;-79
2022/10/03 10:21:26;;;;;;;23.77;3.88;;;;;;;22.57;54.38;101121.16;4994758;28;20247;-79
2022/10/03 10:24:40;;;;;;;9.40;4.15;;;;;;;22.80;52.17;101118.19;4999855;28;20406;-79
2022/10/03 10:27:50;;;;;;;5.38;3.03;;;;;;;23.07;51.68;101108.38;4991975;28;20046;-79
2022/10/03 10:31:00;;;;;;;4.28;2.50;;;;;;;23.02;50.73;101120.66;5000755;28;20065;-79
2022/10/03 10:34:09;;;;;;;8.80;1.88;;;;;;;22.74;51.29;101120.53;4999419;28;20417;-79
2022/10/03 10:37:22;;;;;;;4.78;1.70;;;;;;;22.68;52.18;101113.72;4999570;28;20406;-80
2022/10/03 10:40:28;;;;;;;3.83;1.83;;;;;;;23.13;50.04;101106.81;4990094;28;20053;-79
2022/10/03 10:43:44;;;;;;;3.20;1.83;;;;;;;23.07;50.02;101113.13;4993964;28;20037;-78
2022/10/03 10:47:07;;;;;;;7.53;2.80;;;;;;;23.77;48.39;101105.00;4990222;28;20042;-79
2022/10/03 10:50:19;;;;;;;3.63;1.70;;;;;;;23.66;48.88;101101.44;4985369;28;20045;-79
2022/10/03 10:53:42;;;;;;;2.00;1.40;;;;;;;23.81;49.06;101097.50;4996509;28;20049;-79
2022/10/03 10:56:48;;;;;;;3.67;1.48;;;;;;;23.93;47.94;101085.16;4999130;28;20046;-79
2022/10/03 10:59:45;;;;;;;4.05;1.80;;;;;;;23.50;47.95;101089.91;4983203;28;20061;-79
2022/10/03 11:02:36;;;;;;;2.30;1.40;;;;;;;23.95;48.14;101082.81;4990339;28;20105;-79
2022/10/03 11:05:42;;;;;;;4.40;1.85;;;;;;;24.31;45.41;101091.94;4982207;28;20065;-80
2022/10/03 11:08:59;;;;;;;3.90;1.60;;;;;;;25.46;42.90;101086.31;4994048;28;20041;-79
2022/10/03 11:12:02;;;;;;;4.13;1.80;;;;;;;29.03;35.45;101101.53;4983285;28;20038;-79
2022/10/03 11:15:08;;;;;;;3.92;1.90;;;;;;;36.04;24.18;101113.22;5020070;23;20429;-79
2022/10/03 11:18:22;;;;;;;8.45;1.52;;;;;;;38.46;20.76;101109.91;5011777;28;20057;-79
2022/10/03 11:21:37;;;;;;;3.45;1.33;;;;;;;37.22;22.34;101109.41;5003830;28;20045;-79
2022/10/03 11:24:41;;;;;;;15.30;1.85;;;;;;;40.66;17.33;101115.38;5010559;28;20057;-78
2022/10/03 11:28:03;;;;;;;1.90;1.50;;;;;;;39.86;18.47;101103.38;5004167;28;20049;-78
2022/10/03 11:31:21;;;;;;;2.45;1.45;;;;;;;42.97;15.84;101100.28;5009563;28;20057;-76
2022/10/03 11:34:28;;;;;;;8.35;1.80;;;;;;;42.22;16.23;101099.66;5024318;28;20068;-77
2022/10/03 11:37:50;;;;;;;37.97;7.25;;;;;;;43.37;15.33;101089.28;5022050;28;20061;-78
2022/10/03 11:40:58;;;;;;;4.30;1.70;;;;;;;38.42;19.27;101086.56;5015867;28;20505;-82
2022/10/03 11:43:55;;;;;;;7.78;1.30;;;;;;;42.10;16.87;101085.97;4997024;28;20054;-82
2022/10/03 11:46:59;;;;;;;2.28;1.02;;;;;;;42.36;15.48;101085.59;5013108;28;20048;-81
2022/10/03 11:50:16;;;;;;;9.07;1.60;;;;;;;40.38;18.03;101078.25;5023524;28;20429;-81
2022/10/03 11:53:18;;;;;;;2.67;1.50;;;;;;;38.69;18.83;101076.81;5027946;28;20045;-81
2022/10/03 11:56:29;;;;;;;3.93;1.50;;;;;;;44.03;14.74;101084.16;5005074;28;20054;-81
2022/10/03 11:59:33;;;;;;;3.70;1.85;;;;;;;43.76;14.84;101083.16;5007776;28;20284;-82
2022/10/03 12:02:28;;;;;;;;;;;;;;;40.16;17.28;101073.22;5014555;28;20049;-80
2022/10/03 12:05:28;;;;;;;2.55;1.55;;;;;;;41.02;16.89;101080.16;5010418;28;19913;-83
2022/10/03 12:11:41;;;;;;;8.60;3.00;;;;;;;41.54;16.98;101065.34;5006351;28;20057;-84
2022/10/03 12:14:28;;;;;;;;;;;;;;;39.29;18.25;101058.72;5006618;28;20044;-82
2022/10/03 12:17:20;;;;;;;5.35;2.63;;;;;;;43.18;15.34;101068.38;5029781;28;19925;-82
2022/10/03 12:20:22;;;;;;;4.68;3.33;;;;;;;38.44;19.27;101055.59;4999676;28;20053;-83
2022/10/03 12:23:25;;;;;;;8.20;3.38;;;;;;;38.41;19.26;101050.91;5013046;28;20049;-82
2022/10/03 12:26:17;;;;;;;10.27;3.45;;;;;;;42.40;15.49;101057.50;5014004;28;20049;-82
2022/10/03 12:29:03;;;;;;;7.25;2.60;;;;;;;40.13;17.85;101057.91;5008560;28;20038;-82
2022/10/03 12:32:24;;;;;;;8.68;3.03;;;;;;;39.46;18.48;101053.94;5009730;28;20053;-82
2022/10/03 12:35:28;;;;;;;5.30;3.67;;;;;;;44.41;14.64;101062.78;5007676;28;20057;-82
2022/10/03 12:38:28;;;;;;;9.77;5.60;;;;;;;39.42;19.41;101044.09;5011802;28;20524;-82
2022/10/03 12:41:39;;;;;;;7.80;4.80;;;;;;;36.87;22.65;101031.94;5011448;28;20057;-82
2022/10/03 12:44:47;;;;;;;7.72;4.97;;;;;;;38.51;21.56;101032.41;5011968;28;20036;-81
2022/10/03 12:47:56;;;;;;;9.70;5.40;;;;;;;38.38;21.57;101032.78;5013822;28;20397;-81
2022/10/03 12:51:00;;;;;;;11.00;5.47;;;;;;;36.31;23.41;101021.63;5009549;28;20040;-81
2022/10/03 12:54:14;;;;;;;7.75;6.03;;;;;;;37.71;22.02;101022.66;5011014;28;20046;-83
2022/10/03 12:57:19;;;;;;;;;;;;;;;38.50;20.75;101022.34;5019339;28;20048;-81
2022/10/03 13:00:21;;;;;;;10.15;5.60;;;;;;;45.22;14.67;101040.31;5012566;28;20368;-82
2022/10/03 13:03:18;;;;;;;10.60;5.72;;;;;;;37.06;22.61;101018.31;5013825;28;20041;-82
2022/10/03 13:06:27;;;;;;;10.27;5.57;;;;;;;35.30;24.58;101015.06;5015667;28;20030;-83
2022/10/03 13:09:31;;;;;;;12.45;8.13;;;;;;;38.48;21.61;101019.22;5009833;28;20041;-81
2022/10/03 13:12:41;;;;;;;11.48;6.70;;;;;;;39.10;21.25;101023.41;5017970;28;20049;-83
2022/10/03 13:15:51;;;;;;;8.32;6.28;;;;;;;36.15;24.36;101017.22;5016760;28;20428;-82
2022/10/03 13:18:52;;;;;;;9.05;7.22;;;;;;;33.77;27.73;100999.41;5013511;28;20521;-81
2022/10/03 13:21:46;;;;;;;11.05;7.28;;;;;;;34.63;26.04;101008.50;5012032;28;20065;-83
2022/10/03 13:24:39;;;;;;;9.27;6.45;;;;;;;36.10;25.14;101011.41;5012764;28;20501;-82
2022/10/03 13:27:39;;;;;;;8.88;6.85;;;;;;;32.79;29.24;100992.94;5014146;28;20053;-82
2022/10/03 13:30:27;;;;;;;12.40;8.18;;;;;;;33.64;27.81;101010.00;5016473;28;20105;-82
2022/10/03 13:33:22;;;;;;;13.13;9.27;;;;;;;32.89;28.98;101003.00;5007004;28;20049;-81
2022/10/03 13:36:20;;;;;;;;;;;;;;;33.42;28.38;100995.25;5023669;28;20073;-82
2022/10/03 13:39:33;;;;;;;14.73;9.10;;;;;;;34.68;26.83;101005.06;5017066;28;19913;-83
2022/10/03 13:42:49;;;;;;;15.07;8.93;;;;;;;32.26;29.95;101002.09;5007291;28;20038;-81
2022/10/03 13:45:41;;;;;;;20.90;9.30;;;;;;;34.86;26.13;101000.59;5000302;28;20035;-82
2022/10/03 13:48:28;;;;;;;17.23;9.30;;;;;;;34.96;26.71;101004.97;5022799;28;20033;-83
2022/10/03 13:51:22;;;;;;;13.90;8.88;;;;;;;32.28;29.19;100984.75;5009528;28;20049;-81
2022/10/03 13:54:20;;;;;;;49.97;11.27;;;;;;;34.47;26.64;100993.94;5013503;28;20045;-81
2022/10/03 13:57:15;;;;;;;9.13;8.23;;;;;;;38.68;21.00;101007.78;5009760;28;20038;-81
2022/10/03 14:00:07;;;;;;;12.93;9.55;;;;;;;36.57;24.59;101002.00;5024566;28;20071;-81
2022/10/03 14:03:00;;;;;;;12.68;9.73;;;;;;;35.54;25.49;101008.16;5010845;28;20092;-80
2022/10/03 14:06:03;;;;;;;11.43;9.68;;;;;;;32.76;29.73;101005.91;5006148;28;20042;-80
2022/10/03 14:09:07;;;;;;;11.38;9.52;;;;;;;31.28;31.98;101001.44;5006954;28;20039;-82
2022/10/03 14:12:16;;;;;;;18.10;10.77;;;;;;;29.07;36.26;100979.81;5009701;28;20058;-81
2022/10/03 14:15:01;;;;;;;13.15;9.95;;;;;;;34.04;28.54;100995.03;5006442;28;20038;-80
2022/10/03 14:18:10;;;;;;;13.38;10.85;;;;;;;34.54;27.46;100994.38;5006916;28;20049;-81
2022/10/03 14:21:48;;;;;;;16.38;10.48;;;;;;;32.89;29.93;101000.97;5014582;28;20049;-80
2022/10/03 14:25:18;;;;;;;18.95;11.35;;;;;;;31.09;33.19;101008.03;5008354;28;20034;-80
2022/10/03 14:28:44;;;;;;;15.02;10.63;;;;;;;32.85;30.24;100999.53;5011797;28;20046;-82
2022/10/03 14:31:30;;;;;;;17.90;10.73;;;;;;;30.86;33.58;100997.09;5012914;28;20046;-83